Time;durP1;ratioP1;P1;durP2;ratioP2;P2;SDS_P1;SDS_P2;PMS_P1;PMS_P2;Temp;Humidity;BMP_temperature;BMP_pressure;BME280_temperature;BME280_humidity;BME280_pressure;Samples;Min_cycle;Max_cycle;Signal;HPM_P1;HPM_P2
2023/09/13 00:01:36;;;;;;;7.03;6.43;;;23.10;99.90;;;;;;5006280;28;20472;-88
2023/09/13 00:04:08;;;;;;;9.80;8.00;;;23.10;99.90;;;;;;5003052;28;20507;-81
2023/09/13 00:06:35;;;;;;;7.43;6.70;;;23.10;99.90;;;;;;5019241;28;20496;-87
2023/09/13 00:09:02;;;;;;;7.20;6.50;;;23.10;99.90;;;;;;5017414;28;20471;-87
2023/09/13 00:11:32;;;;;;;7.90;6.93;;;23.00;99.90;;;;;;5017830;28;20874;-81
2023/09/13 00:13:59;;;;;;;8.13;7.40;;;23.00;99.90;;;;;;5017880;28;20956;-87
2023/09/13 00:16:26;;;;;;;8.03;7.33;;;23.00;99.90;;;;;;5018507;28;20500;-89
2023/09/13 00:18:53;;;;;;;7.70;7.00;;;23.00;99.90;;;;;;5016997;28;20539;-89
2023/09/13 00:21:21;;;;;;;8.53;7.70;;;22.90;99.90;;;;;;5017607;28;20477;-81
2023/09/13 00:23:48;;;;;;;8.23;7.63;;;22.90;99.90;;;;;;5016322;28;20971;-80
2023/09/13 00:26:16;;;;;;;8.90;7.67;;;23.00;99.90;;;;;;5016658;28;20792;-88
2023/09/13 00:28:45;;;;;;;8.30;7.60;;;23.00;99.90;;;;;;5015911;28;20818;-81
2023/09/13 00:31:13;;;;;;;8.73;8.13;;;23.00;99.90;;;;;;5016569;28;20496;-88
2023/09/13 00:33:41;;;;;;;9.50;8.60;;;23.00;99.90;;;;;;5015693;28;20513;-88
2023/09/13 00:36:08;;;;;;;8.53;7.40;;;23.00;99.90;;;;;;5016075;28;20476;-88
2023/09/13 00:38:37;;;;;;;8.63;7.77;;;23.00;99.90;;;;;;4990166;28;20470;-88
2023/09/13 00:44:06;;;;;;;10.43;8.27;;;23.00;99.90;;;;;;4979669;28;20465;-80
2023/09/13 00:46:37;;;;;;;9.50;7.33;;;23.00;99.90;;;;;;4990446;28;20470;-82
2023/09/13 00:49:06;;;;;;;8.10;7.40;;;23.00;99.90;;;;;;4975959;28;21289;-89
2023/09/13 00:51:35;;;;;;;8.20;7.40;;;23.00;99.90;;;;;;4999176;28;20469;-88
2023/09/13 00:54:16;;;;;;;7.00;6.50;;;23.00;99.90;;;;;;5006712;28;20481;-81
2023/09/13 00:56:45;;;;;;;7.27;6.70;;;23.00;99.90;;;;;;5017403;28;20822;-88
2023/09/13 00:59:12;;;;;;;7.97;7.33;;;23.00;99.90;;;;;;5008196;28;20500;-88
2023/09/13 01:01:40;;;;;;;9.67;8.40;;;23.10;99.90;;;;;;5017869;28;20483;-88
2023/09/13 01:04:07;;;;;;;7.00;6.40;;;23.10;99.90;;;;;;5016192;28;20517;-89
2023/09/13 01:06:34;;;;;;;7.63;6.97;;;23.10;99.90;;;;;;5016576;28;20472;-82
2023/09/13 01:09:04;;;;;;;7.63;6.90;;;23.10;99.90;;;;;;5015498;28;20476;-89
2023/09/13 01:11:31;;;;;;;8.50;7.63;;;23.10;99.90;;;;;;5016697;28;20477;-89
2023/09/13 01:13:58;;;;;;;7.97;7.27;;;23.10;99.90;;;;;;5016565;28;20492;-81
2023/09/13 01:16:32;;;;;;;6.90;6.33;;;23.10;99.90;;;;;;5016991;28;20494;-89
2023/09/13 01:19:11;;;;;;;7.33;6.73;;;23.20;99.90;;;;;;5014824;28;20527;-81
2023/09/13 01:22:02;;;;;;;7.30;6.70;;;23.10;99.90;;;;;;5015396;28;20465;-81
2023/09/13 01:25:06;;;;;;;6.90;6.20;;;23.10;99.90;;;;;;5022906;28;20531;-89
2023/09/13 01:27:49;;;;;;;7.00;6.40;;;23.10;99.90;;;;;;5028831;28;20489;-81
2023/09/13 01:30:20;;;;;;;7.50;6.80;;;23.10;99.90;;;;;;5014453;28;20469;-79
2023/09/13 01:32:48;;;;;;;7.03;6.20;;;23.00;99.90;;;;;;5027705;28;20469;-80
2023/09/13 01:35:15;;;;;;;6.63;6.03;;;23.00;99.90;;;;;;5007961;28;20522;-80
2023/09/13 01:37:42;;;;;;;6.73;6.23;;;22.90;99.90;;;;;;5019264;28;20492;-82
2023/09/13 01:40:09;;;;;;;7.17;6.27;;;23.00;99.90;;;;;;5016610;28;20568;-82
2023/09/13 01:42:41;;;;;;;7.27;6.77;;;23.00;99.90;;;;;;5018446;28;20447;-81
2023/09/13 01:45:12;;;;;;;7.50;6.77;;;23.00;99.90;;;;;;5014603;28;20545;-80
2023/09/13 01:47:47;;;;;;;6.40;5.80;;;23.00;99.90;;;;;;5014470;28;20479;-82
2023/09/13 01:50:15;;;;;;;6.83;6.27;;;23.00;99.90;;;;;;5006491;28;20473;-88
2023/09/13 01:52:42;;;;;;;6.37;5.87;;;23.10;99.90;;;;;;5017850;28;20507;-88
2023/09/13 01:55:11;;;;;;;6.07;5.57;;;23.10;99.90;;;;;;5017476;28;20967;-81
2023/09/13 01:57:41;;;;;;;6.83;6.23;;;23.10;99.90;;;;;;5023086;28;20465;-82
2023/09/13 02:00:09;;;;;;;6.97;6.17;;;23.20;99.90;;;;;;5014445;28;20789;-81
2023/09/13 02:02:39;;;;;;;15.63;6.30;;;23.20;99.90;;;;;;5027136;28;20549;-88
2023/09/13 02:05:08;;;;;;;14.80;6.30;;;23.10;99.90;;;;;;5016014;28;20512;-89
2023/09/13 02:07:35;;;;;;;19.00;9.30;;;23.10;99.90;;;;;;5014317;28;20477;-89
2023/09/13 02:10:02;;;;;;;18.40;7.27;;;23.10;99.90;;;;;;5014613;28;20481;-81
2023/09/13 02:12:34;;;;;;;15.60;8.80;;;23.00;99.90;;;;;;5003086;28;20508;-81
2023/09/13 02:15:01;;;;;;;10.70;7.80;;;22.90;99.90;;;;;;5014133;28;20472;-81
2023/09/13 02:17:28;;;;;;;9.83;7.23;;;22.80;99.90;;;;;;5003787;28;20578;-81
2023/09/13 02:19:55;;;;;;;8.30;7.03;;;22.70;99.90;;;;;;5013738;28;20537;-81
2023/09/13 02:22:24;;;;;;;10.57;6.10;;;22.50;99.90;;;;;;5014611;28;20469;-90
2023/09/13 02:24:53;;;;;;;8.93;6.90;;;22.40;99.90;;;;;;5014006;28;20492;-89
2023/09/13 02:27:21;;;;;;;6.50;5.60;;;22.20;99.90;;;;;;5014712;28;20511;-89
2023/09/13 02:29:48;;;;;;;7.47;6.50;;;22.10;99.90;;;;;;5013047;28;20465;-89
2023/09/13 02:32:15;;;;;;;9.27;6.60;;;22.00;99.90;;;;;;5014364;28;21156;-81
2023/09/13 02:34:45;;;;;;;6.90;6.30;;;21.90;99.90;;;;;;5013728;28;20473;-81
2023/09/13 02:37:15;;;;;;;10.07;6.60;;;21.90;99.90;;;;;;5013819;28;20477;-81
2023/09/13 02:39:45;;;;;;;8.53;5.53;;;21.80;99.90;;;;;;5013196;28;20552;-81
2023/09/13 02:42:12;;;;;;;6.57;5.30;;;21.70;99.90;;;;;;5014049;28;20519;-81
2023/09/13 02:44:40;;;;;;;7.10;5.00;;;21.70;99.90;;;;;;5013130;28;20480;-81
2023/09/13 02:47:09;;;;;;;10.40;5.07;;;21.60;99.90;;;;;;5013750;28;20464;-89
2023/09/13 02:49:36;;;;;;;6.60;5.17;;;21.60;99.90;;;;;;5013115;28;20535;-81
2023/09/13 02:52:07;;;;;;;6.53;5.20;;;21.50;99.90;;;;;;5014247;28;20496;-89
2023/09/13 02:54:34;;;;;;;7.73;4.80;;;21.50;99.90;;;;;;5013320;28;20496;-88
2023/09/13 02:57:03;;;;;;;5.07;4.57;;;21.40;99.90;;;;;;5014006;28;20464;-89
2023/09/13 02:59:30;;;;;;;5.73;4.97;;;21.40;99.90;;;;;;5013549;28;20951;-80
2023/09/13 03:01:57;;;;;;;9.00;4.87;;;21.40;99.90;;;;;;5013324;28;20469;-89
2023/09/13 03:04:24;;;;;;;7.73;5.23;;;21.30;99.90;;;;;;5013283;28;20990;-81
2023/09/13 03:06:51;;;;;;;8.50;4.33;;;21.20;99.90;;;;;;5013098;28;20561;-88
2023/09/13 03:09:18;;;;;;;5.50;4.83;;;21.20;99.90;;;;;;5013020;28;20540;-88
2023/09/13 03:11:47;;;;;;;5.97;4.40;;;21.20;99.90;;;;;;5012831;28;20479;-81
2023/09/13 03:14:17;;;;;;;4.97;4.30;;;21.20;99.90;;;;;;5003544;28;20500;-81
2023/09/13 03:16:44;;;;;;;6.10;4.43;;;21.10;99.90;;;;;;5002821;28;20507;-89
2023/09/13 03:19:12;;;;;;;5.63;4.03;;;21.00;99.90;;;;;;5012860;28;20794;-81
2023/09/13 03:21:39;;;;;;;7.13;4.30;;;21.00;99.90;;;;;;5013670;28;20473;-81
2023/09/13 03:24:07;;;;;;;8.50;4.70;;;21.00;99.90;;;;;;5012513;28;20468;-88
2023/09/13 03:26:34;;;;;;;5.10;4.30;;;21.00;99.90;;;;;;5013337;28;20959;-81
2023/09/13 03:29:02;;;;;;;5.90;4.30;;;21.00;99.90;;;;;;5012579;28;20508;-81
2023/09/13 03:31:31;;;;;;;5.07;4.20;;;20.90;99.90;;;;;;5013510;28;20856;-81
2023/09/13 03:33:59;;;;;;;6.90;4.80;;;20.90;99.90;;;;;;5012593;28;20483;-81
2023/09/13 03:36:27;;;;;;;4.30;3.90;;;21.00;99.90;;;;;;5014204;28;20511;-88
2023/09/13 03:38:55;;;;;;;5.30;4.67;;;21.00;99.90;;;;;;5012992;28;20555;-82
2023/09/13 03:41:24;;;;;;;5.40;4.80;;;21.00;99.90;;;;;;5004918;28;20950;-82
2023/09/13 03:43:51;;;;;;;6.00;4.97;;;21.00;99.90;;;;;;5003578;28;20527;-80
2023/09/13 03:46:18;;;;;;;4.80;4.40;;;21.00;99.90;;;;;;5002934;28;20473;-81
2023/09/13 03:48:46;;;;;;;7.40;6.37;;;21.00;99.90;;;;;;5012959;28;20469;-89
2023/09/13 03:51:13;;;;;;;5.87;5.37;;;21.00;99.90;;;;;;5012559;28;21028;-81
2023/09/13 03:53:40;;;;;;;8.40;5.97;;;21.00;99.90;;;;;;5011202;28;20488;-88
2023/09/13 03:56:12;;;;;;;4.40;4.10;;;21.00;99.90;;;;;;5012080;28;20473;-81
2023/09/13 03:58:41;;;;;;;7.63;5.63;;;21.00;99.90;;;;;;5013372;28;20497;-81
2023/09/13 04:01:08;;;;;;;8.00;5.27;;;21.00;99.90;;;;;;5011641;28;21014;-81
2023/09/13 04:03:36;;;;;;;6.63;5.43;;;21.00;99.90;;;;;;5013210;28;20476;-81
2023/09/13 04:06:04;;;;;;;7.50;5.80;;;20.90;99.90;;;;;;5012505;28;20473;-81
2023/09/13 04:08:33;;;;;;;5.53;5.03;;;20.90;99.90;;;;;;5015979;28;20476;-80
2023/09/13 04:11:01;;;;;;;9.67;7.00;;;20.90;99.90;;;;;;5018947;28;20492;-81
2023/09/13 04:13:34;;;;;;;6.50;5.90;;;20.90;99.90;;;;;;5013617;28;20460;-88
2023/09/13 04:16:02;;;;;;;7.97;6.30;;;20.90;99.90;;;;;;5019776;28;20492;-88
2023/09/13 04:18:29;;;;;;;6.13;5.53;;;20.90;99.90;;;;;;5016019;28;20791;-88
2023/09/13 04:20:56;;;;;;;6.47;5.97;;;20.90;99.90;;;;;;5004381;28;21052;-88
2023/09/13 04:23:25;;;;;;;6.80;5.83;;;20.90;99.90;;;;;;5014242;28;20523;-81
2023/09/13 04:25:52;;;;;;;8.33;6.20;;;20.90;99.90;;;;;;5015457;28;20997;-82
2023/09/13 04:28:19;;;;;;;7.47;5.97;;;20.90;99.90;;;;;;5023294;28;20480;-80
2023/09/13 04:31:13;;;;;;;7.10;6.40;;;20.90;99.90;;;;;;5017027;28;20544;-88
2023/09/13 04:33:48;;;;;;;6.87;6.27;;;20.90;99.90;;;;;;5018846;28;20799;-80
2023/09/13 04:36:15;;;;;;;7.30;6.70;;;20.90;99.90;;;;;;5019829;28;20492;-88
2023/09/13 04:38:44;;;;;;;8.00;7.20;;;20.90;99.90;;;;;;5024158;28;20469;-81
2023/09/13 04:41:14;;;;;;;7.33;6.63;;;20.90;99.90;;;;;;5018244;28;20504;-81
2023/09/13 04:43:42;;;;;;;7.50;6.77;;;20.90;99.90;;;;;;5014242;28;20487;-89
2023/09/13 04:46:19;;;;;;;7.90;7.10;;;20.90;99.90;;;;;;5020288;28;20831;-88
2023/09/13 04:48:46;;;;;;;7.53;6.93;;;20.90;99.90;;;;;;5016980;28;20918;-82
2023/09/13 04:51:13;;;;;;;8.97;8.17;;;20.90;99.90;;;;;;5016355;28;20469;-81
2023/09/13 04:53:44;;;;;;;7.10;6.40;;;20.90;99.90;;;;;;5005041;28;20571;-88
2023/09/13 04:56:12;;;;;;;10.17;8.80;;;20.90;99.90;;;;;;5015013;28;21019;-86
2023/09/13 04:58:39;;;;;;;9.73;8.30;;;20.90;99.90;;;;;;5014700;28;20473;-81
2023/09/13 05:01:06;;;;;;;9.63;8.73;;;20.90;99.90;;;;;;5017134;28;20469;-88
2023/09/13 05:03:33;;;;;;;8.00;7.20;;;20.90;99.90;;;;;;5016190;28;20488;-88
2023/09/13 05:06:02;;;;;;;8.23;7.50;;;20.90;99.90;;;;;;5016126;28;20469;-88
2023/09/13 05:08:32;;;;;;;10.77;8.57;;;20.90;99.90;;;;;;5015913;28;20491;-82
2023/09/13 05:11:03;;;;;;;9.07;8.30;;;21.00;99.90;;;;;;5008963;28;20523;-87
2023/09/13 05:13:32;;;;;;;10.43;8.80;;;20.90;99.90;;;;;;5020877;28;20867;-86
2023/09/13 05:16:00;;;;;;;8.30;7.60;;;21.00;99.90;;;;;;5022598;28;20471;-88
2023/09/13 05:18:28;;;;;;;9.70;8.80;;;21.00;99.90;;;;;;5024079;28;20537;-86
2023/09/13 05:20:57;;;;;;;8.50;7.70;;;21.00;99.90;;;;;;5019862;28;20465;-88
2023/09/13 05:23:24;;;;;;;14.70;13.03;;;21.00;99.90;;;;;;5021759;28;20535;-89
2023/09/13 05:25:55;;;;;;;15.93;13.17;;;21.00;99.90;;;;;;5022832;28;20552;-81
2023/09/13 05:28:24;;;;;;;13.77;12.30;;;21.00;99.90;;;;;;5015064;28;20784;-80
2023/09/13 05:30:51;;;;;;;14.57;13.23;;;21.00;99.90;;;;;;5014604;28;20523;-81
2023/09/13 05:33:18;;;;;;;13.97;12.73;;;21.00;99.90;;;;;;5015351;28;20544;-81
2023/09/13 05:35:44;;;;;;;14.50;13.13;;;21.00;99.90;;;;;;5014700;28;20477;-80
2023/09/13 05:38:14;;;;;;;14.50;13.13;;;21.00;99.90;;;;;;5014898;28;20480;-80
2023/09/13 05:40:41;;;;;;;14.27;12.97;;;21.00;99.90;;;;;;5014664;28;21300;-81
2023/09/13 05:43:08;;;;;;;14.70;13.20;;;21.00;99.90;;;;;;5014884;28;20479;-81
2023/09/13 05:45:37;;;;;;;16.53;13.33;;;21.00;99.90;;;;;;5015282;28;20477;-88
2023/09/13 05:48:04;;;;;;;16.20;14.70;;;20.90;99.90;;;;;;5005307;28;20531;-87
2023/09/13 05:50:31;;;;;;;14.90;13.53;;;20.90;99.90;;;;;;5015496;28;20536;-88
2023/09/13 05:53:04;;;;;;;17.23;15.67;;;20.90;99.90;;;;;;5014576;28;20571;-80
2023/09/13 05:55:33;;;;;;;14.33;13.17;;;20.80;99.90;;;;;;5015908;28;20714;-87
2023/09/13 05:58:02;;;;;;;15.47;14.17;;;20.90;99.90;;;;;;5021247;28;20476;-80
2023/09/13 06:00:32;;;;;;;15.87;14.40;;;20.90;99.90;;;;;;5015531;28;20473;-80
2023/09/13 06:03:01;;;;;;;19.00;17.20;;;21.00;99.90;;;;;;5014640;28;20477;-81
2023/09/13 06:05:28;;;;;;;18.67;16.80;;;21.00;99.90;;;;;;5018920;28;20489;-88
2023/09/13 06:07:56;;;;;;;17.03;15.63;;;21.00;99.90;;;;;;5009309;28;20492;-88
2023/09/13 06:10:32;;;;;;;18.73;15.57;;;21.00;99.90;;;;;;4999494;28;20473;-88
2023/09/13 06:12:59;;;;;;;19.93;17.97;;;21.10;99.90;;;;;;5008228;28;20473;-88
2023/09/13 06:15:26;;;;;;;17.60;15.90;;;21.10;99.90;;;;;;5016827;28;20866;-88
2023/09/13 06:17:54;;;;;;;17.47;15.90;;;21.10;99.90;;;;;;5016755;28;20468;-88
2023/09/13 06:20:23;;;;;;;16.47;14.93;;;21.10;99.90;;;;;;5017043;28;20542;-88
2023/09/13 06:22:50;;;;;;;18.73;16.93;;;21.20;99.90;;;;;;5003215;28;20485;-88
2023/09/13 06:25:19;;;;;;;16.97;15.47;;;21.20;99.90;;;;;;5016842;28;20492;-88
2023/09/13 06:27:46;;;;;;;17.33;15.77;;;21.20;99.90;;;;;;5015523;28;20504;-87
2023/09/13 06:30:16;;;;;;;18.70;16.90;;;21.20;99.90;;;;;;5015238;28;20507;-87
2023/09/13 06:32:46;;;;;;;17.33;15.67;;;21.20;99.90;;;;;;5014391;28;20484;-87
2023/09/13 06:35:14;;;;;;;15.53;14.13;;;21.20;99.90;;;;;;5015250;28;20469;-88
2023/09/13 06:37:44;;;;;;;16.17;14.67;;;21.20;99.90;;;;;;5014422;28;20475;-81
2023/09/13 06:40:13;;;;;;;16.47;13.10;;;21.20;99.90;;;;;;5013954;28;20496;-80
2023/09/13 06:42:43;;;;;;;13.77;12.57;;;21.20;99.90;;;;;;5013169;28;20477;-82
2023/09/13 06:45:11;;;;;;;15.63;14.33;;;21.30;99.90;;;;;;5015564;28;20476;-79
2023/09/13 06:47:38;;;;;;;14.57;13.27;;;21.30;99.90;;;;;;5014439;28;20564;-87
2023/09/13 06:50:06;;;;;;;13.50;12.10;;;21.30;99.90;;;;;;5014849;28;20476;-88
2023/09/13 06:52:35;;;;;;;13.87;12.23;;;21.40;99.90;;;;;;5012722;28;20472;-89
2023/09/13 06:55:04;;;;;;;15.87;12.70;;;21.40;99.90;;;;;;5012702;28;20497;-80
2023/09/13 06:57:32;;;;;;;11.97;10.97;;;21.50;99.90;;;;;;5015421;28;20472;-82
2023/09/13 06:59:59;;;;;;;14.43;12.47;;;21.50;99.90;;;;;;5002956;28;20548;-80
2023/09/13 07:02:28;;;;;;;13.87;11.80;;;21.60;99.90;;;;;;5013993;28;20548;-89
2023/09/13 07:05:00;;;;;;;11.97;10.97;;;21.60;99.90;;;;;;5003531;28;20866;-80
2023/09/13 07:07:28;;;;;;;12.90;11.80;;;21.60;99.90;;;;;;5005047;28;20469;-88
2023/09/13 07:09:55;;;;;;;13.80;12.10;;;21.60;99.90;;;;;;5014104;28;20475;-80
2023/09/13 07:12:23;;;;;;;11.60;10.60;;;21.60;99.90;;;;;;5013690;28;20567;-80
2023/09/13 07:14:51;;;;;;;10.90;9.90;;;21.60;99.90;;;;;;5013539;28;20477;-79
2023/09/13 07:17:21;;;;;;;11.80;10.60;;;21.60;99.90;;;;;;5015270;28;20469;-80
2023/09/13 07:19:49;;;;;;;12.27;9.60;;;21.70;99.90;;;;;;5014507;28;20553;-87
2023/09/13 07:22:17;;;;;;;11.37;10.37;;;21.80;99.90;;;;;;5020748;28;20461;-88
2023/09/13 07:24:45;;;;;;;10.03;9.03;;;21.80;99.90;;;;;;5015619;28;20496;-87
2023/09/13 07:27:16;;;;;;;9.23;8.33;;;21.80;99.90;;;;;;5016176;28;20477;-80
2023/09/13 07:29:46;;;;;;;8.37;7.70;;;21.90;99.90;;;;;;5013119;28;20546;-88
2023/09/13 07:32:18;;;;;;;9.43;8.53;;;21.90;99.90;;;;;;5014426;28;20530;-80
2023/09/13 07:34:50;;;;;;;9.87;8.97;;;21.90;99.90;;;;;;5013553;28;20480;-85
2023/09/13 07:37:17;;;;;;;9.87;8.97;;;21.90;99.90;;;;;;5015650;28;20544;-80
2023/09/13 07:39:44;;;;;;;11.73;8.77;;;21.90;99.90;;;;;;4993882;28;20877;-87
2023/09/13 07:42:11;;;;;;;8.63;7.93;;;22.00;99.90;;;;;;5004074;28;20477;-80
2023/09/13 07:44:41;;;;;;;9.90;9.00;;;22.00;99.90;;;;;;5013223;28;20487;-88
2023/09/13 07:47:13;;;;;;;8.43;7.73;;;21.90;99.90;;;;;;5012636;28;20857;-81
2023/09/13 07:49:40;;;;;;;8.53;7.77;;;22.00;99.90;;;;;;5013944;28;20480;-88
2023/09/13 07:52:07;;;;;;;7.73;7.00;;;22.00;99.90;;;;;;5003576;28;20556;-88
2023/09/13 07:54:34;;;;;;;8.60;7.70;;;22.00;99.90;;;;;;5013157;28;20481;-89
2023/09/13 07:57:04;;;;;;;8.60;7.80;;;21.90;99.90;;;;;;5003677;28;20472;-83
2023/09/13 07:59:31;;;;;;;11.87;8.30;;;22.00;99.90;;;;;;5012345;28;20572;-89
2023/09/13 08:01:58;;;;;;;8.17;7.50;;;21.90;99.90;;;;;;5014180;28;20493;-82
2023/09/13 08:04:27;;;;;;;8.20;7.40;;;21.90;99.90;;;;;;5006600;28;20567;-81
2023/09/13 08:07:02;;;;;;;7.50;6.83;;;21.90;99.90;;;;;;5016716;28;20534;-83
2023/09/13 08:09:30;;;;;;;9.30;8.53;;;22.00;99.90;;;;;;5016634;28;20464;-89
2023/09/13 08:11:57;;;;;;;9.37;8.53;;;22.00;99.90;;;;;;5017826;28;20499;-89
2023/09/13 08:14:39;;;;;;;7.93;7.30;;;22.00;99.90;;;;;;5022081;28;20477;-89
2023/09/13 08:17:08;;;;;;;9.43;7.47;;;22.00;99.90;;;;;;5018022;28;20465;-82
2023/09/13 08:19:36;;;;;;;7.77;7.10;;;22.00;99.90;;;;;;5017932;28;20783;-89
2023/09/13 08:22:04;;;;;;;7.60;6.90;;;22.00;99.90;;;;;;5017049;28;20469;-89
2023/09/13 08:24:33;;;;;;;7.57;6.93;;;22.00;99.90;;;;;;5014452;28;20507;-82
2023/09/13 08:27:00;;;;;;;9.33;8.03;;;22.10;99.90;;;;;;5006097;28;20481;-80
2023/09/13 08:29:29;;;;;;;7.70;7.07;;;22.10;99.90;;;;;;5015747;28;20501;-88
2023/09/13 08:31:56;;;;;;;8.10;7.33;;;22.10;99.90;;;;;;5009542;28;20484;-80
2023/09/13 08:34:24;;;;;;;6.67;6.17;;;22.10;99.90;;;;;;5016068;28;20473;-80
2023/09/13 08:36:55;;;;;;;6.97;6.37;;;22.10;99.90;;;;;;5019345;28;20469;-81
2023/09/13 08:39:31;;;;;;;7.63;7.03;;;22.10;99.90;;;;;;5004218;28;20506;-81
2023/09/13 08:42:01;;;;;;;7.90;7.10;;;22.10;99.90;;;;;;5013462;28;20464;-81
2023/09/13 08:44:32;;;;;;;6.37;5.93;;;22.20;99.90;;;;;;5015398;28;20473;-81
2023/09/13 08:47:01;;;;;;;6.10;5.50;;;22.20;99.90;;;;;;5016305;28;20499;-81
2023/09/13 08:49:28;;;;;;;5.57;5.10;;;22.20;99.90;;;;;;5007088;28;20500;-88
2023/09/13 08:55:21;;;;;;;8.00;6.40;;;22.30;99.90;;;;;;4992255;28;20496;-81
2023/09/13 08:57:53;;;;;;;7.40;5.60;;;22.40;99.90;;;;;;5008351;28;20813;-81
2023/09/13 09:00:31;;;;;;;6.20;5.60;;;22.40;99.90;;;;;;4995876;28;20482;-81
2023/09/13 09:03:05;;;;;;;5.53;4.63;;;22.40;99.90;;;;;;4999728;28;20460;-89
2023/09/13 09:05:32;;;;;;;5.40;4.90;;;22.50;99.90;;;;;;4989653;28;20628;-89
2023/09/13 09:08:06;;;;;;;5.03;4.57;;;22.50;99.90;;;;;;4997650;28;20489;-89
2023/09/13 09:10:56;;;;;;;5.30;4.80;;;22.50;99.90;;;;;;4996456;28;20484;-89
2023/09/13 09:13:49;;;;;;;5.50;5.10;;;22.50;99.90;;;;;;4994061;28;20569;-89
2023/09/13 09:16:28;;;;;;;4.80;4.30;;;22.50;99.90;;;;;;4991614;28;20549;-88
2023/09/13 09:19:04;;;;;;;4.60;4.17;;;22.50;99.90;;;;;;4991066;28;20465;-88
2023/09/13 09:21:35;;;;;;;4.93;3.50;;;22.50;99.90;;;;;;4996815;28;20457;-81
2023/09/13 09:24:02;;;;;;;4.50;4.20;;;22.50;99.90;;;;;;5005372;28;20501;-88
2023/09/13 09:26:30;;;;;;;3.47;3.17;;;22.50;99.90;;;;;;4995261;28;20544;-81
2023/09/13 09:29:17;;;;;;;3.80;3.43;;;22.60;99.90;;;;;;5008307;28;20467;-88
2023/09/13 09:31:46;;;;;;;4.80;3.23;;;22.60;99.90;;;;;;4985187;28;20857;-80
2023/09/13 09:34:23;;;;;;;3.00;2.80;;;22.60;99.90;;;;;;4991233;28;20475;-88
2023/09/13 09:37:02;;;;;;;2.93;2.63;;;22.60;99.90;;;;;;4996617;28;20973;-88
2023/09/13 09:39:30;;;;;;;3.53;3.23;;;22.60;99.90;;;;;;5001473;28;20480;-84
2023/09/13 09:42:00;;;;;;;4.00;3.60;;;22.60;99.90;;;;;;4993959;28;20453;-82
2023/09/13 09:44:29;;;;;;;3.63;3.07;;;22.60;99.90;;;;;;5006951;28;20478;-88
2023/09/13 09:46:57;;;;;;;3.80;2.80;;;22.60;99.90;;;;;;5003710;28;20466;-81
2023/09/13 09:49:25;;;;;;;3.23;3.03;;;22.60;99.90;;;;;;4995441;28;20470;-81
2023/09/13 09:51:56;;;;;;;3.30;3.10;;;22.60;99.90;;;;;;4996725;28;20927;-81
2023/09/13 09:54:23;;;;;;;3.83;3.50;;;22.60;99.90;;;;;;4996432;28;20557;-89
2023/09/13 09:56:52;;;;;;;3.70;3.50;;;22.70;99.90;;;;;;4984673;28;20479;-81
2023/09/13 09:59:23;;;;;;;4.00;3.70;;;22.70;99.90;;;;;;4981604;28;20972;-81
2023/09/13 10:01:57;;;;;;;3.57;3.37;;;22.70;99.90;;;;;;4988857;28;20495;-89
2023/09/13 10:04:44;;;;;;;3.63;3.33;;;22.80;99.90;;;;;;4976325;28;20484;-80
2023/09/13 10:07:11;;;;;;;3.87;3.57;;;22.80;99.90;;;;;;4979915;28;20546;-88
2023/09/13 10:09:42;;;;;;;3.43;3.23;;;22.90;99.90;;;;;;4977115;28;20471;-80
2023/09/13 10:12:13;;;;;;;4.07;3.77;;;22.90;99.90;;;;;;4976499;28;20503;-87
2023/09/13 10:14:43;;;;;;;4.20;3.50;;;23.00;99.90;;;;;;4981683;28;20506;-89
2023/09/13 10:17:10;;;;;;;4.67;4.27;;;23.00;99.90;;;;;;4977302;28;21000;-81
2023/09/13 10:19:42;;;;;;;3.13;2.93;;;23.10;99.90;;;;;;4978068;28;20485;-81
2023/09/13 10:22:13;;;;;;;3.87;3.57;;;23.10;99.90;;;;;;4976444;28;20557;-88
2023/09/13 10:24:47;;;;;;;3.60;3.40;;;23.10;99.90;;;;;;4975580;28;20487;-80
2023/09/13 10:27:15;;;;;;;6.33;5.80;;;23.20;99.90;;;;;;4974928;28;20532;-81
2023/09/13 10:29:49;;;;;;;5.97;5.37;;;23.20;99.90;;;;;;4977165;28;20550;-88
2023/09/13 10:32:18;;;;;;;4.97;4.57;;;23.20;99.90;;;;;;4978571;28;20538;-89
2023/09/13 10:34:49;;;;;;;4.70;4.30;;;23.30;99.90;;;;;;4983003;28;20483;-88
2023/09/13 11:05:46;;;;;;;3.33;3.13;;;23.60;99.90;;;;;;5464061;22;20466;-88
2023/09/13 11:08:27;;;;;;;3.47;3.13;;;23.70;99.90;;;;;;5050947;28;20474;-81
2023/09/13 11:10:55;;;;;;;3.20;3.00;;;23.80;99.90;;;;;;5056748;28;20971;-80
2023/09/13 11:13:30;;;;;;;3.57;3.27;;;23.80;99.90;;;;;;5055942;28;20462;-80
2023/09/13 11:16:01;;;;;;;2.83;2.63;;;23.80;99.90;;;;;;5059884;28;20467;-88
2023/09/13 11:18:28;;;;;;;3.67;3.37;;;23.90;99.90;;;;;;5059066;28;20457;-89
2023/09/13 11:20:57;;;;;;;2.90;2.70;;;23.90;99.90;;;;;;5060031;28;20543;-80
2023/09/13 11:23:45;;;;;;;3.53;3.23;;;23.90;99.90;;;;;;5071147;28;20463;-88
2023/09/13 11:26:13;;;;;;;4.53;3.33;;;23.90;99.90;;;;;;5072518;28;20478;-87
2023/09/13 11:28:48;;;;;;;3.53;3.33;;;23.90;99.90;;;;;;5073852;28;20479;-88
2023/09/13 11:32:00;;;;;;;3.17;2.87;;;23.90;99.90;;;;;;5048594;28;20486;-80
2023/09/13 11:34:27;;;;;;;3.40;3.03;;;23.80;99.90;;;;;;5062622;28;20529;-89
2023/09/13 11:37:04;;;;;;;3.37;3.07;;;23.80;99.90;;;;;;5056650;28;20471;-81
2023/09/13 11:39:32;;;;;;;3.53;3.00;;;23.80;99.90;;;;;;5053823;28;20550;-89
2023/09/13 11:41:59;;;;;;;3.60;3.30;;;23.80;99.90;;;;;;5058175;28;20486;-89
2023/09/13 11:44:30;;;;;;;2.50;2.30;;;23.80;99.90;;;;;;5057138;28;20495;-88
2023/09/13 11:47:00;;;;;;;4.47;3.20;;;23.80;99.90;;;;;;5056227;28;20492;-88
2023/09/13 11:49:29;;;;;;;6.90;4.70;;;23.80;99.90;;;;;;5054214;28;20479;-89
2023/09/13 11:51:58;;;;;;;5.00;4.20;;;23.70;99.90;;;;;;5053328;28;20478;-81
2023/09/13 11:54:29;;;;;;;4.00;3.70;;;23.60;99.90;;;;;;5051835;28;20494;-81
2023/09/13 11:57:00;;;;;;;3.67;3.37;;;23.50;99.90;;;;;;5052442;28;20471;-81
2023/09/13 11:59:35;;;;;;;3.90;3.50;;;23.50;99.90;;;;;;5052307;28;20467;-88
2023/09/13 12:02:03;;;;;;;2.70;2.60;;;23.40;99.90;;;;;;5053259;28;20474;-81
2023/09/13 12:04:30;;;;;;;3.63;3.43;;;23.30;99.90;;;;;;5051974;28;20475;-81
2023/09/13 12:06:57;;;;;;;4.00;3.80;;;23.30;99.90;;;;;;5052444;28;20513;-80
2023/09/13 12:09:26;;;;;;;4.20;3.90;;;23.20;99.90;;;;;;5052574;28;20475;-88
2023/09/13 12:11:55;;;;;;;4.10;3.57;;;23.10;99.90;;;;;;5053355;28;20462;-88
2023/09/13 12:14:25;;;;;;;3.50;3.30;;;23.10;99.90;;;;;;5053601;28;21029;-88
2023/09/13 12:17:16;;;;;;;4.43;4.07;;;23.00;99.90;;;;;;5043959;28;20504;-89
2023/09/13 12:19:48;;;;;;;4.20;3.90;;;23.00;99.90;;;;;;5038253;28;20523;-89
2023/09/13 12:22:17;;;;;;;3.87;3.57;;;23.00;99.90;;;;;;5053467;28;20486;-83
2023/09/13 12:24:53;;;;;;;5.93;4.43;;;23.00;99.90;;;;;;5054317;28;20858;-88
2023/09/13 12:27:24;;;;;;;3.83;3.53;;;22.90;99.90;;;;;;5052893;28;20478;-89
2023/09/13 12:29:51;;;;;;;3.70;3.50;;;23.00;99.90;;;;;;5052431;28;20495;-81
2023/09/13 12:32:26;;;;;;;3.80;3.50;;;23.00;99.90;;;;;;5052288;28;20778;-82
2023/09/13 12:34:55;;;;;;;3.43;3.23;;;23.00;99.90;;;;;;5052317;28;20471;-81
2023/09/13 12:37:25;;;;;;;3.30;3.00;;;23.00;99.90;;;;;;5042773;28;20471;-81
2023/09/13 12:39:53;;;;;;;3.27;3.00;;;23.00;99.90;;;;;;5041908;28;20474;-81
2023/09/13 12:42:22;;;;;;;5.00;3.70;;;23.00;99.90;;;;;;5052644;28;20491;-88
2023/09/13 12:44:49;;;;;;;4.00;3.70;;;23.00;99.90;;;;;;5052983;28;20832;-82
2023/09/13 12:47:19;;;;;;;4.13;3.83;;;22.90;99.90;;;;;;5052443;28;20562;-88
2023/09/13 12:49:50;;;;;;;6.90;4.30;;;23.00;99.90;;;;;;5047594;28;20447;-82
2023/09/13 12:52:17;;;;;;;3.97;3.57;;;23.00;99.90;;;;;;5035293;28;20467;-82
2023/09/13 12:54:56;;;;;;;3.70;3.40;;;23.00;99.90;;;;;;5055189;28;20467;-90
2023/09/13 12:57:23;;;;;;;2.80;2.60;;;23.00;99.90;;;;;;5046100;28;20476;-82
2023/09/13 12:59:55;;;;;;;3.87;3.30;;;23.00;99.90;;;;;;5035312;28;20478;-81
2023/09/13 13:02:22;;;;;;;7.33;2.93;;;23.00;99.90;;;;;;5036058;28;20467;-91
2023/09/13 13:05:03;;;;;;;2.87;2.67;;;23.10;99.90;;;;;;5059050;28;20495;-91
2023/09/13 13:07:33;;;;;;;3.03;2.80;;;23.20;99.90;;;;;;5055690;28;20498;-82
2023/09/13 13:10:05;;;;;;;3.20;3.00;;;23.30;99.90;;;;;;5056688;28;20448;-90
2023/09/13 13:12:33;;;;;;;5.07;4.67;;;23.40;99.90;;;;;;5058272;28;20464;-82
2023/09/13 13:15:01;;;;;;;25.67;23.00;;;23.50;99.90;;;;;;5055831;28;20483;-90
2023/09/13 13:17:40;;;;;;;47.30;42.27;;;23.60;99.90;;;;;;5054779;28;20546;-84
2023/09/13 13:20:09;;;;;;;44.07;39.40;;;23.60;99.90;;;;;;5054712;28;20482;-90
2023/09/13 13:22:50;;;;;;;51.17;45.57;;;23.70;99.90;;;;;;5044510;28;20476;-82
2023/09/13 13:25:21;;;;;;;22.03;19.93;;;23.80;99.90;;;;;;5034970;28;20514;-83
2023/09/13 13:27:54;;;;;;;10.23;9.33;;;23.90;99.90;;;;;;5035412;28;20464;-82
2023/09/13 13:30:22;;;;;;;8.20;7.50;;;23.90;99.90;;;;;;5037579;28;20547;-89
2023/09/13 13:32:54;;;;;;;7.80;7.10;;;23.90;99.90;;;;;;5035972;28;20467;-81